createdAt,value
2024-05-09T00:00:54.157Z,57.47
2024-05-09T00:03:24.585Z,57.12
2024-05-09T00:05:54.930Z,57.40
2024-05-09T00:08:25.948Z,57.34
2024-05-09T00:10:56.385Z,58.30
2024-05-09T00:13:29.644Z,57.93
2024-05-09T00:16:00.089Z,58.26
2024-05-09T00:18:30.566Z,57.99
2024-05-09T00:21:01.234Z,58.53
2024-05-09T00:23:32.725Z,58.62
2024-05-09T00:26:03.224Z,58.74
2024-05-09T00:28:36.210Z,58.96
2024-05-09T00:31:06.689Z,58.98
2024-05-09T00:33:37.139Z,59.19
2024-05-09T00:36:08.254Z,59.85
2024-05-09T00:38:38.622Z,59.90
2024-05-09T00:41:08.958Z,59.45
2024-05-09T00:43:41.936Z,59.92
2024-05-09T00:46:13.218Z,59.99
2024-05-09T00:48:44.164Z,59.97
2024-05-09T00:51:14.841Z,60.07
2024-05-09T00:53:45.707Z,59.78
2024-05-09T00:56:16.391Z,60.30
2024-05-09T00:58:54.335Z,60.25
2024-05-09T01:01:27.678Z,60.40
2024-05-09T01:03:58.409Z,60.48
2024-05-09T01:06:28.795Z,60.40
2024-05-09T01:08:59.132Z,60.61
2024-05-09T01:11:36.615Z,60.44
2024-05-09T01:14:09.686Z,60.82
2024-05-09T01:16:42.143Z,60.43
2024-05-09T01:19:25.941Z,60.35
2024-05-09T01:21:56.403Z,60.62
2024-05-09T01:24:29.470Z,61.00
2024-05-09T01:26:59.789Z,60.18
2024-05-09T01:29:30.133Z,60.67
2024-05-09T01:32:01.053Z,60.70
2024-05-09T01:34:31.404Z,61.08
2024-05-09T01:37:01.734Z,60.92
2024-05-09T01:39:35.245Z,61.10
2024-05-09T01:42:05.657Z,61.03
2024-05-09T01:44:39.005Z,61.48
2024-05-09T01:47:09.508Z,61.40
2024-05-09T01:53:40.970Z,61.95
2024-05-09T01:56:13.967Z,61.87
2024-05-09T01:58:44.378Z,62.66
2024-05-09T02:01:14.709Z,62.33
2024-05-09T02:03:47.813Z,62.35
2024-05-09T02:06:18.320Z,62.05
2024-05-09T02:08:48.729Z,62.34
2024-05-09T02:11:26.023Z,62.51
2024-05-09T02:13:56.355Z,62.38
2024-05-09T02:16:26.647Z,62.58
2024-05-09T02:18:57.018Z,62.41
2024-05-09T02:21:36.742Z,62.69
2024-05-09T02:24:07.450Z,62.52
2024-05-09T02:26:40.394Z,62.59
2024-05-09T02:29:10.782Z,62.85
2024-05-09T02:31:41.127Z,62.70
2024-05-09T02:34:11.739Z,62.99
2024-05-09T02:36:42.211Z,62.78
2024-05-09T02:39:10.006Z,62.89
2024-05-09T02:41:42.930Z,62.75
2024-05-09T02:44:10.678Z,63.20
2024-05-09T02:46:40.953Z,63.14
2024-05-09T02:49:08.746Z,63.17
2024-05-09T02:51:39.175Z,63.51
2024-05-09T02:54:07.799Z,62.91
2024-05-09T02:56:38.163Z,63.30
2024-05-09T02:59:08.506Z,63.28
2024-05-09T03:01:40.305Z,63.16
2024-05-09T03:04:08.154Z,63.01
2024-05-09T03:06:43.014Z,63.32
2024-05-09T03:09:10.711Z,63.03
2024-05-09T03:11:41.169Z,63.00
2024-05-09T03:14:15.719Z,63.45
2024-05-09T03:16:45.746Z,63.46
2024-05-09T03:19:13.539Z,63.79
2024-05-09T03:21:43.964Z,63.53
2024-05-09T03:24:11.928Z,63.90
2024-05-09T03:26:42.241Z,63.35
2024-05-09T03:29:12.624Z,63.59
2024-05-09T03:31:43.005Z,63.79
2024-05-09T03:34:13.455Z,64.09
2024-05-09T03:36:44.147Z,63.81
2024-05-09T03:39:14.739Z,63.67
2024-05-09T03:41:45.035Z,63.38
2024-05-09T03:44:18.155Z,63.99
2024-05-09T03:46:45.868Z,63.66
2024-05-09T03:49:17.996Z,64.46
2024-05-09T03:51:45.745Z,64.65
2024-05-09T03:54:16.030Z,64.60
2024-05-09T03:56:44.496Z,64.48
2024-05-09T03:59:17.523Z,64.46
2024-05-09T04:01:45.471Z,64.40
2024-05-09T04:04:15.935Z,64.23
2024-05-09T04:06:43.598Z,64.95
2024-05-09T04:09:13.871Z,64.23
2024-05-09T04:11:41.745Z,64.87
2024-05-09T04:14:12.200Z,64.37
2024-05-09T04:16:42.710Z,64.64
2024-05-09T04:19:13.130Z,64.82
2024-05-09T04:21:40.873Z,64.98
2024-05-09T04:24:12.616Z,64.98
2024-05-09T04:26:40.337Z,65.00
2024-05-09T04:29:11.080Z,65.23
2024-05-09T04:31:38.802Z,64.83
2024-05-09T04:34:11.821Z,64.51
2024-05-09T04:36:41.712Z,64.55
2024-05-09T04:39:13.554Z,64.47
2024-05-09T04:41:41.283Z,64.65
2024-05-09T04:44:11.684Z,64.87
2024-05-09T04:46:39.868Z,65.24
2024-05-09T04:49:13.105Z,64.62
2024-05-09T04:51:41.097Z,65.10
2024-05-09T04:54:22.138Z,65.19
2024-05-09T04:56:57.593Z,64.56
2024-05-09T04:59:28.216Z,65.02
2024-05-09T05:01:56.095Z,64.41
2024-05-09T05:04:29.901Z,64.38
2024-05-09T05:06:59.739Z,64.94
2024-05-09T05:09:32.415Z,64.32
2024-05-09T05:12:02.187Z,64.85
2024-05-09T05:14:32.765Z,64.99
2024-05-09T05:17:00.580Z,65.04
2024-05-09T05:19:33.662Z,64.77
2024-05-09T05:22:01.343Z,64.97
2024-05-09T05:24:31.686Z,64.69
2024-05-09T05:26:59.383Z,64.89
2024-05-09T05:29:30.007Z,64.37
2024-05-09T05:31:57.895Z,64.74
2024-05-09T05:34:28.348Z,64.19
2024-05-09T05:36:58.757Z,64.59
2024-05-09T05:39:29.024Z,64.96
2024-05-09T05:41:59.339Z,64.73
2024-05-09T05:44:27.171Z,64.16
2024-05-09T05:46:57.474Z,64.36
2024-05-09T05:49:25.294Z,64.78
2024-05-09T05:51:55.704Z,64.64
2024-05-09T05:54:26.259Z,64.24
2024-05-09T05:56:56.583Z,64.38
2024-05-09T05:59:24.322Z,64.41
2024-05-09T06:01:54.619Z,64.79
2024-05-09T06:04:23.591Z,64.77
2024-05-09T06:06:53.888Z,64.28
2024-05-09T06:09:21.620Z,64.59
2024-05-09T06:11:54.795Z,63.96
2024-05-09T06:14:22.728Z,64.39
2024-05-09T06:16:54.694Z,64.35
2024-05-09T06:19:24.978Z,64.52
2024-05-09T06:21:55.310Z,64.40
2024-05-09T06:24:22.995Z,64.32
2024-05-09T06:26:55.938Z,64.18
2024-05-09T06:29:33.364Z,64.33
2024-05-09T06:32:03.760Z,64.18
2024-05-09T06:34:31.747Z,63.96
2024-05-09T06:37:02.040Z,63.86
2024-05-09T06:39:29.784Z,64.45
2024-05-09T06:42:02.806Z,64.06
2024-05-09T06:44:30.681Z,64.04
2024-05-09T06:47:01.769Z,63.93
2024-05-09T06:49:31.731Z,63.62
2024-05-09T06:52:02.207Z,64.35
2024-05-09T06:54:30.261Z,63.73
2024-05-09T06:57:03.313Z,63.16
2024-05-09T06:59:31.243Z,63.18
2024-05-09T07:02:01.828Z,63.39
2024-05-09T07:04:30.141Z,63.43
2024-05-09T07:07:00.618Z,63.65
2024-05-09T07:09:28.460Z,63.61
2024-05-09T07:12:00.108Z,62.82
2024-05-09T07:14:30.555Z,63.14
2024-05-09T07:17:01.308Z,63.21
2024-05-09T07:19:29.492Z,63.27
2024-05-09T07:22:00.214Z,63.36
2024-05-09T07:24:27.974Z,63.62
2024-05-09T07:26:58.511Z,63.00
2024-05-09T07:29:26.329Z,62.99
2024-05-09T07:31:59.398Z,63.04
2024-05-09T07:34:27.313Z,63.56
2024-05-09T07:36:57.669Z,63.17
2024-05-09T07:39:25.382Z,63.01
2024-05-09T07:41:55.716Z,63.54
2024-05-09T07:44:23.534Z,62.95
2024-05-09T07:48:13.733Z,63.09
2024-05-09T07:51:32.157Z,63.19
2024-05-09T07:53:33.188Z,63.08
2024-05-09T07:55:22.180Z,63.19
2024-05-09T07:57:52.579Z,62.95
2024-05-09T08:00:27.061Z,62.51
2024-05-09T08:03:01.500Z,62.90
2024-05-09T08:05:34.891Z,62.56
2024-05-09T08:08:02.690Z,62.79
2024-05-09T08:10:35.347Z,62.64
2024-05-09T08:13:03.240Z,62.68
2024-05-09T08:15:33.629Z,62.37
2024-05-09T08:18:01.816Z,62.21
2024-05-09T08:20:35.500Z,62.09
2024-05-09T08:23:03.651Z,61.76
2024-05-09T08:25:33.913Z,61.67
2024-05-09T08:28:01.703Z,61.56
2024-05-09T08:30:36.837Z,61.59
2024-05-09T08:33:07.176Z,61.21
2024-05-09T08:35:40.787Z,61.21
2024-05-09T08:38:09.250Z,61.01
2024-05-09T08:40:39.713Z,61.12
2024-05-09T08:43:08.511Z,61.16
2024-05-09T08:45:42.609Z,60.66
2024-05-09T08:48:13.345Z,60.81
2024-05-09T08:50:46.853Z,60.53
2024-05-09T08:53:15.200Z,60.45
2024-05-09T08:55:47.169Z,60.41
2024-05-09T08:58:16.815Z,60.97
2024-05-09T09:00:48.228Z,60.64
2024-05-09T09:03:19.514Z,60.23
2024-05-09T09:06:00.436Z,60.14
2024-05-09T09:08:28.249Z,60.00
2024-05-09T09:11:00.984Z,59.92
2024-05-09T09:13:28.860Z,59.92
2024-05-09T09:16:04.253Z,59.64
2024-05-09T09:18:33.160Z,59.31
2024-05-09T09:21:07.421Z,58.79
2024-05-09T09:23:35.108Z,58.21
2024-05-09T09:26:05.419Z,58.10
2024-05-09T09:28:36.807Z,56.55
2024-05-09T09:31:07.833Z,56.43
2024-05-09T09:33:36.344Z,56.28
2024-05-09T09:36:13.668Z,56.25
2024-05-09T09:38:42.289Z,56.07
2024-05-09T09:41:13.362Z,56.22
2024-05-09T09:43:42.932Z,56.03
2024-05-09T09:46:16.533Z,56.24
2024-05-09T09:48:44.875Z,56.41
2024-05-09T09:51:18.456Z,56.49
2024-05-09T09:53:47.761Z,56.49
2024-05-09T09:56:20.362Z,56.27
2024-05-09T09:58:49.032Z,56.76
2024-05-09T10:01:27.799Z,56.52
2024-05-09T10:03:55.694Z,56.99
2024-05-09T10:06:30.276Z,56.95
2024-05-09T10:08:59.561Z,56.88
2024-05-09T10:11:39.528Z,57.09
2024-05-09T10:14:09.770Z,57.13
2024-05-09T10:16:46.702Z,56.91
2024-05-09T10:19:24.356Z,57.34
2024-05-09T10:22:03.749Z,57.35
2024-05-09T10:24:46.656Z,57.36
2024-05-09T10:27:17.266Z,57.64
2024-05-09T10:29:54.309Z,57.94
2024-05-09T10:32:24.757Z,57.55
2024-05-09T10:35:06.820Z,57.76
2024-05-09T10:37:40.104Z,57.75
2024-05-09T10:40:14.239Z,57.86
2024-05-09T10:42:52.217Z,57.49
2024-05-09T10:45:20.157Z,57.93
2024-05-09T10:47:51.476Z,57.72
2024-05-09T10:50:25.710Z,57.81
2024-05-09T10:53:01.856Z,57.75
2024-05-09T10:55:29.644Z,58.05
2024-05-09T10:57:59.988Z,57.39
2024-05-09T11:00:35.689Z,58.22
2024-05-09T11:03:07.508Z,57.72
2024-05-09T11:05:36.387Z,58.26
2024-05-09T11:08:10.391Z,57.68
2024-05-09T11:10:38.875Z,58.14
2024-05-09T11:13:09.276Z,57.29
2024-05-09T11:15:40.324Z,57.91
2024-05-09T11:18:11.568Z,57.49
2024-05-09T11:20:39.360Z,58.13
2024-05-09T11:23:20.438Z,57.74
2024-05-09T11:25:51.265Z,58.04
2024-05-09T11:28:21.995Z,58.22
2024-05-09T11:30:50.858Z,57.15
2024-05-09T11:33:22.286Z,57.08
2024-05-09T11:35:50.060Z,57.28
2024-05-09T11:38:23.060Z,57.18
2024-05-09T11:40:50.954Z,57.10
2024-05-09T11:43:21.385Z,57.01
2024-05-09T11:45:49.191Z,56.70
2024-05-09T11:48:20.097Z,57.30
2024-05-09T11:50:47.865Z,57.02
2024-05-09T11:53:18.231Z,56.25
2024-05-09T11:55:48.740Z,56.31
2024-05-09T11:58:21.439Z,56.85
2024-05-09T12:00:49.337Z,56.41
2024-05-09T12:03:19.712Z,56.33
2024-05-09T12:05:47.498Z,56.52
2024-05-09T12:08:17.957Z,56.25
2024-05-09T12:10:49.374Z,56.58
2024-05-09T12:13:19.998Z,56.59
2024-05-09T12:15:47.848Z,56.79
2024-05-09T12:18:18.197Z,56.44
2024-05-09T12:20:45.971Z,56.32
2024-05-09T12:23:16.300Z,56.94
2024-05-09T12:25:44.694Z,57.00
2024-05-09T12:28:18.766Z,56.57
2024-05-09T12:30:46.714Z,56.69
2024-05-09T12:33:17.350Z,57.19
2024-05-09T12:35:47.337Z,56.67
2024-05-09T12:38:19.510Z,56.57
2024-05-09T12:40:48.739Z,56.59
2024-05-09T12:43:21.759Z,56.52
2024-05-09T12:45:49.615Z,56.17
2024-05-09T12:48:20.175Z,56.81
2024-05-09T12:50:48.204Z,59.23
2024-05-09T12:53:18.567Z,57.27
2024-05-09T12:55:53.581Z,60.11
2024-05-09T12:58:30.078Z,60.01
2024-05-09T13:00:57.901Z,59.48
2024-05-09T13:03:28.380Z,59.65
2024-05-09T13:05:56.125Z,59.25
2024-05-09T13:08:26.641Z,60.31
2024-05-09T13:10:54.438Z,60.57
2024-05-09T13:13:24.824Z,60.84
2024-05-09T13:15:55.236Z,60.46
2024-05-09T13:18:25.620Z,59.71
2024-05-09T13:20:53.286Z,59.75
2024-05-09T13:23:23.675Z,56.30
2024-05-09T13:25:51.375Z,57.10
2024-05-09T13:28:22.799Z,56.58
2024-05-09T13:30:50.530Z,57.15
2024-05-09T13:33:23.516Z,57.07
2024-05-09T13:35:51.400Z,58.08
2024-05-09T13:38:22.520Z,57.47
2024-05-09T13:40:50.798Z,57.15
2024-05-09T13:43:22.286Z,57.09
2024-05-09T13:45:50.315Z,57.18
2024-05-09T13:48:23.464Z,57.03
2024-05-09T13:50:51.232Z,57.26
2024-05-09T13:53:21.784Z,57.70
2024-05-09T13:55:49.927Z,58.37
2024-05-09T13:58:20.286Z,58.61
2024-05-09T14:00:49.221Z,57.39
2024-05-09T14:03:21.187Z,58.02
2024-05-09T14:05:52.313Z,57.90
2024-05-09T14:08:23.394Z,58.94
2024-05-09T14:10:51.362Z,59.08
2024-05-09T14:13:22.391Z,60.04
2024-05-09T14:15:50.489Z,59.44
2024-05-09T14:18:21.228Z,58.35
2024-05-09T14:20:51.579Z,59.45
2024-05-09T14:23:21.868Z,60.13
2024-05-09T14:25:52.183Z,58.89
2024-05-09T14:28:24.680Z,59.69
2024-05-09T14:30:52.580Z,59.86
2024-05-09T14:33:26.852Z,58.88
2024-05-09T14:35:57.355Z,59.28
2024-05-09T14:38:27.787Z,59.49
2024-05-09T14:40:55.751Z,58.99
2024-05-09T14:43:26.592Z,59.11
2024-05-09T14:45:56.141Z,59.38
2024-05-09T14:48:27.242Z,59.24
2024-05-09T14:50:57.582Z,59.00
2024-05-09T14:53:28.499Z,59.11
2024-05-09T14:55:56.381Z,59.02
2024-05-09T14:58:26.804Z,58.34
2024-05-09T15:00:54.681Z,57.79
2024-05-09T15:03:25.123Z,58.46
2024-05-09T15:05:53.343Z,58.29
2024-05-09T15:08:26.522Z,58.75
2024-05-09T15:10:54.532Z,58.12
2024-05-09T15:13:25.170Z,50.45
2024-05-09T15:15:53.143Z,51.76
2024-05-09T15:18:23.696Z,50.49
2024-05-09T15:20:51.553Z,49.21
2024-05-09T15:23:22.519Z,49.37
2024-05-09T15:25:53.108Z,49.04
2024-05-09T15:28:23.777Z,49.21
2024-05-09T15:30:51.494Z,48.39
2024-05-09T15:33:21.805Z,49.11
2024-05-09T15:35:51.204Z,48.12
2024-05-09T15:38:22.265Z,47.83
2024-05-09T15:40:52.819Z,46.88
2024-05-09T15:43:23.225Z,44.51
2024-05-09T15:45:51.076Z,45.41
2024-05-09T15:48:21.856Z,46.11
2024-05-09T15:50:49.654Z,44.94
2024-05-09T15:53:21.018Z,45.22
2024-05-09T15:55:48.671Z,45.61
2024-05-09T15:58:22.038Z,44.96
2024-05-09T16:00:52.058Z,44.65
2024-05-09T16:03:23.369Z,45.19
2024-05-09T16:05:51.964Z,44.10
2024-05-09T16:08:22.625Z,44.65
2024-05-09T16:10:51.206Z,45.62
2024-05-09T16:13:24.217Z,44.89
2024-05-09T16:15:52.139Z,44.74
2024-05-09T16:18:22.703Z,45.60
2024-05-09T16:20:50.946Z,45.74
2024-05-09T16:23:21.299Z,45.73
2024-05-09T16:25:49.027Z,45.62
2024-05-09T16:28:21.729Z,46.14
2024-05-09T16:30:54.084Z,46.58
2024-05-09T16:33:26.131Z,46.15
2024-05-09T16:35:54.290Z,46.32
2024-05-09T16:38:24.694Z,46.79
2024-05-09T16:40:52.627Z,46.19
2024-05-09T16:43:23.440Z,46.57
2024-05-09T16:45:54.086Z,46.31
2024-05-09T16:48:24.634Z,47.01
2024-05-09T16:50:53.099Z,46.91
2024-05-09T16:53:23.409Z,47.05
2024-05-09T16:55:51.161Z,47.04
2024-05-09T16:58:21.828Z,46.95
2024-05-09T17:00:50.969Z,47.16
2024-05-09T17:03:25.030Z,47.16
2024-05-09T17:05:52.960Z,47.05
2024-05-09T17:08:23.457Z,47.00
2024-05-09T17:10:51.304Z,47.53
2024-05-09T17:13:22.787Z,47.88
2024-05-09T17:15:53.441Z,48.12
2024-05-09T17:18:26.677Z,48.92
2024-05-09T17:20:55.059Z,48.82
2024-05-09T17:23:25.337Z,49.77
2024-05-09T17:25:52.993Z,49.88
2024-05-09T17:28:23.353Z,50.07
2024-05-09T17:30:51.110Z,49.78
2024-05-09T17:33:21.501Z,49.51
2024-05-09T17:35:52.004Z,49.64
2024-05-09T17:38:23.031Z,50.14
2024-05-09T17:40:52.037Z,49.85
2024-05-09T17:43:22.644Z,49.77
2024-05-09T17:45:53.090Z,49.80
2024-05-09T17:48:21.823Z,49.68
2024-05-09T17:50:54.811Z,49.87
2024-05-09T17:53:22.535Z,49.92
2024-05-09T17:55:53.962Z,49.93
2024-05-09T17:58:22.090Z,50.57
2024-05-09T18:00:52.588Z,50.42
2024-05-09T18:03:22.932Z,50.82
2024-05-09T18:05:56.082Z,50.62
2024-05-09T18:08:24.266Z,50.85
2024-05-09T18:10:55.562Z,50.90
2024-05-09T18:13:23.669Z,51.02
2024-05-09T18:15:54.118Z,50.99
2024-05-09T18:18:21.987Z,51.04
2024-05-09T18:20:55.002Z,50.89
2024-05-09T18:23:23.281Z,51.27
2024-05-09T18:25:54.833Z,51.31
2024-05-09T18:28:23.485Z,51.52
2024-05-09T18:30:53.948Z,52.04
2024-05-09T18:33:21.848Z,52.69
2024-05-09T18:35:54.847Z,52.71
2024-05-09T18:38:26.864Z,52.86
2024-05-09T18:40:57.534Z,53.60
2024-05-09T18:43:31.136Z,53.49
2024-05-09T18:46:06.396Z,53.53
2024-05-09T18:48:34.500Z,53.56
2024-05-09T18:51:14.729Z,53.16
2024-05-09T18:53:45.202Z,53.64
2024-05-09T18:56:12.990Z,53.58
2024-05-09T18:58:43.278Z,54.16
2024-05-09T19:01:11.354Z,53.81
2024-05-09T19:03:42.204Z,54.36
2024-05-09T19:06:12.774Z,53.96
2024-05-09T19:08:43.071Z,54.29
2024-05-09T19:11:10.739Z,54.18
2024-05-09T19:13:41.112Z,54.17
2024-05-09T19:16:08.900Z,54.29
2024-05-09T19:18:39.406Z,54.57
2024-05-09T19:21:07.331Z,54.41
2024-05-09T19:23:47.078Z,54.39
2024-05-09T19:26:19.977Z,54.53
2024-05-09T19:28:50.292Z,54.45
2024-05-09T19:31:18.047Z,54.69
2024-05-09T19:33:48.434Z,54.61
2024-05-09T19:36:19.356Z,54.68
2024-05-09T19:38:52.295Z,54.69
2024-05-09T19:41:20.013Z,54.78
2024-05-09T19:43:50.273Z,54.78
2024-05-09T19:46:18.155Z,54.85
2024-05-09T19:48:48.712Z,54.83
2024-05-09T19:51:16.670Z,54.88
2024-05-09T19:53:46.922Z,55.10
2024-05-09T19:56:19.917Z,54.93
2024-05-09T19:58:47.629Z,55.34
2024-05-09T20:01:17.990Z,55.01
2024-05-09T20:03:45.880Z,55.27
2024-05-09T20:06:16.487Z,55.30
2024-05-09T20:08:44.200Z,54.75
2024-05-09T20:11:14.553Z,55.25
2024-05-09T20:13:44.872Z,55.12
2024-05-09T20:16:15.303Z,55.43
2024-05-09T20:18:43.221Z,55.33
2024-05-09T20:21:13.735Z,55.31
2024-05-09T20:23:43.986Z,55.27
2024-05-09T20:26:11.698Z,55.38
2024-05-09T20:28:42.251Z,55.36
2024-05-09T20:31:19.567Z,55.31
2024-05-09T20:33:50.089Z,55.50
2024-05-09T20:36:17.781Z,55.60
2024-05-09T20:38:48.112Z,56.33
2024-05-09T20:41:15.768Z,55.66
2024-05-09T20:43:46.115Z,55.36
2024-05-09T20:46:17.403Z,55.61
2024-05-09T20:48:49.453Z,55.36
2024-05-09T20:51:17.198Z,55.42
2024-05-09T20:53:47.532Z,55.78
2024-05-09T20:56:15.219Z,55.59
2024-05-09T20:58:45.566Z,55.23
2024-05-09T21:01:13.409Z,55.05
2024-05-09T21:03:47.538Z,55.02
2024-05-09T21:06:15.310Z,55.37
2024-05-09T21:08:45.845Z,55.19
2024-05-09T21:11:13.533Z,55.40
2024-05-09T21:13:44.502Z,55.70
2024-05-09T21:16:14.510Z,55.82
2024-05-09T21:18:48.395Z,55.54
2024-05-09T21:21:16.188Z,55.28
2024-05-09T21:23:47.030Z,55.67
2024-05-09T21:26:15.335Z,55.62
2024-05-09T21:28:45.998Z,55.71
2024-05-09T21:31:13.797Z,55.74
2024-05-09T21:33:44.678Z,55.67
2024-05-09T21:36:15.143Z,55.45
2024-05-09T21:38:46.151Z,55.63
2024-05-09T21:41:14.002Z,55.45
2024-05-09T21:43:44.697Z,56.16
2024-05-09T21:46:12.659Z,56.26
2024-05-09T21:48:44.674Z,56.09
2024-05-09T21:51:18.086Z,55.88
2024-05-09T21:53:50.924Z,55.96
2024-05-09T21:56:18.803Z,56.08
2024-05-09T21:58:49.137Z,56.20
2024-05-09T22:01:17.183Z,55.99
2024-05-09T22:03:48.249Z,56.39
2024-05-09T22:06:18.776Z,55.81
2024-05-09T22:08:49.063Z,56.35
2024-05-09T22:11:16.820Z,56.22
2024-05-09T22:13:47.082Z,56.23
2024-05-09T22:16:14.726Z,56.59
2024-05-09T22:18:45.407Z,56.04
2024-05-09T22:21:13.364Z,56.75
2024-05-09T22:23:46.324Z,56.14
2024-05-09T22:26:14.016Z,56.77
2024-05-09T22:28:45.433Z,57.00
2024-05-09T22:31:13.117Z,56.85
2024-05-09T22:33:46.381Z,56.69
2024-05-09T22:36:18.172Z,56.59
2024-05-09T22:38:54.237Z,57.21
2024-05-09T22:41:24.443Z,57.23
2024-05-09T22:43:55.577Z,56.77
2024-05-09T22:46:23.476Z,56.80
2024-05-09T22:48:54.200Z,56.58
2024-05-09T22:51:22.023Z,56.21
2024-05-09T22:53:55.033Z,56.63
2024-05-09T22:56:27.140Z,56.64
2024-05-09T22:58:57.651Z,56.28
2024-05-09T23:01:26.898Z,56.54
2024-05-09T23:03:57.575Z,56.92
2024-05-09T23:06:25.585Z,56.14
2024-05-09T23:08:58.547Z,57.13
2024-05-09T23:11:26.345Z,56.14
2024-05-09T23:13:56.675Z,56.56
2024-05-09T23:16:24.405Z,57.09
2024-05-09T23:18:54.815Z,56.29
2024-05-09T23:21:23.928Z,56.65
2024-05-09T23:23:54.584Z,56.47
2024-05-09T23:26:25.322Z,56.31
2024-05-09T23:28:55.851Z,56.51
2024-05-09T23:31:23.592Z,56.37
2024-05-09T23:33:55.287Z,57.04
2024-05-09T23:36:23.170Z,56.89
2024-05-09T23:38:53.475Z,56.59
2024-05-09T23:41:21.665Z,57.05
2024-05-09T23:43:54.604Z,56.82
2024-05-09T23:46:22.554Z,56.89
2024-05-09T23:48:53.111Z,56.71
2024-05-09T23:51:21.930Z,56.85
2024-05-09T23:53:52.248Z,56.73
2024-05-09T23:56:21.575Z,57.16
2024-05-09T23:58:54.523Z,56.82
